Time;durP1;ratioP1;P1;durP2;ratioP2;P2;SDS_P1;SDS_P2;PMS_P1;PMS_P2;Temp;Humidity;BMP_temperature;BMP_pressure;BME280_temperature;BME280_humidity;BME280_pressure;Samples;Min_cycle;Max_cycle;Signal;HPM_P1;HPM_P2
2022/07/11 00:00:16;;;;;;;3.90;2.90;;;;;;;15.52;100.00;101518.50;680837;28;4358;-44
2022/07/11 00:00:37;;;;;;;4.80;3.22;;;;;;;15.52;100.00;101520.25;675853;29;1673;-43
2022/07/11 00:00:57;;;;;;;4.70;3.10;;;;;;;15.52;100.00;101510.59;674691;29;1506;-44
2022/07/11 00:01:18;;;;;;;5.75;3.00;;;;;;;15.52;100.00;101518.50;674454;29;1197;-44
2022/07/11 00:01:38;;;;;;;6.27;3.20;;;;;;;15.51;100.00;101519.38;675487;29;1255;-44
2022/07/11 00:02:01;;;;;;;5.35;3.10;;;;;;;15.52;100.00;101515.88;677924;29;1232;-44
2022/07/11 00:02:21;;;;;;;5.00;3.00;;;;;;;15.53;100.00;101514.09;681279;28;1281;-43
2022/07/11 00:02:42;;;;;;;4.90;3.20;;;;;;;15.53;100.00;101516.72;684485;28;1255;-46
2022/07/11 00:03:02;;;;;;;4.97;3.13;;;;;;;15.53;100.00;101517.59;686807;28;1209;-45
2022/07/11 00:03:23;;;;;;;5.20;3.03;;;;;;;15.52;100.00;101513.22;687778;28;4603;-44
2022/07/11 00:03:43;;;;;;;6.03;3.20;;;;;;;15.52;100.00;101510.59;687103;28;1075;-46
2022/07/11 00:04:04;;;;;;;5.87;3.20;;;;;;;15.51;100.00;101506.22;687868;28;1277;-45
2022/07/11 00:04:24;;;;;;;4.93;2.90;;;;;;;15.52;100.00;101504.44;687457;28;1160;-44
2022/07/11 00:04:46;;;;;;;5.00;3.00;;;;;;;15.54;100.00;101526.38;684331;28;1151;-44
2022/07/11 00:05:09;;;;;;;5.15;2.90;;;;;;;15.55;100.00;101515.81;684837;28;1921;-44
2022/07/11 00:05:29;;;;;;;4.50;3.08;;;;;;;15.55;100.00;101504.38;684833;28;1350;-44
2022/07/11 00:05:49;;;;;;;4.73;3.10;;;;;;;15.56;100.00;101512.31;685273;28;1271;-44
2022/07/11 00:06:10;;;;;;;5.40;3.20;;;;;;;15.57;100.00;101513.16;684565;28;4356;-43
2022/07/11 00:06:30;;;;;;;5.18;3.08;;;;;;;15.56;100.00;101527.22;679057;28;1308;-44
2022/07/11 00:06:50;;;;;;;4.80;3.13;;;;;;;15.56;100.00;101507.03;680693;28;1378;-44
2022/07/11 00:07:11;;;;;;;5.55;3.08;;;;;;;15.56;100.00;101511.41;679797;28;1344;-44
2022/07/11 00:07:31;;;;;;;5.33;2.90;;;;;;;15.55;100.00;101518.47;682443;28;1284;-46
2022/07/11 00:07:52;;;;;;;5.47;3.03;;;;;;;15.55;100.00;101510.56;682303;28;1724;-44
2022/07/11 00:08:12;;;;;;;5.13;3.33;;;;;;;15.54;100.00;101511.44;681483;28;1411;-46
2022/07/11 00:08:32;;;;;;;5.90;3.37;;;;;;;15.54;100.00;101514.06;687947;28;1397;-43
2022/07/11 00:08:53;;;;;;;5.82;3.25;;;;;;;15.53;100.00;101511.47;687664;28;1385;-44
2022/07/11 00:09:13;;;;;;;4.73;2.90;;;;;;;15.52;100.00;101512.34;686605;28;4366;-44
2022/07/11 00:09:33;;;;;;;4.97;3.00;;;;;;;15.53;100.00;101512.31;687960;28;964;-44
2022/07/11 00:09:54;;;;;;;5.30;3.30;;;;;;;15.53;100.00;101509.69;687916;28;1552;-44
2022/07/11 00:10:14;;;;;;;5.67;3.20;;;;;;;15.53;100.00;101511.47;686947;28;1351;-45
2022/07/11 00:10:35;;;;;;;4.88;3.15;;;;;;;15.52;100.00;101510.59;688271;28;1176;-45
2022/07/11 00:10:55;;;;;;;5.07;3.00;;;;;;;15.52;100.00;101509.72;687242;28;1338;-44
2022/07/11 00:11:15;;;;;;;4.93;3.35;;;;;;;15.52;100.00;101505.31;687823;28;1608;-45
2022/07/11 00:11:36;;;;;;;4.80;3.30;;;;;;;15.52;100.00;101507.97;688573;28;1347;-46
2022/07/11 00:11:57;;;;;;;4.25;2.80;;;;;;;15.55;100.00;101504.38;687490;28;1599;-46
2022/07/11 00:12:20;;;;;;;4.45;2.80;;;;;;;15.54;100.00;101506.16;686659;28;4474;-46
2022/07/11 00:12:40;;;;;;;5.10;3.00;;;;;;;15.53;100.00;101501.78;682127;28;1236;-44
2022/07/11 00:13:01;;;;;;;5.57;3.20;;;;;;;15.53;100.00;101506.19;682291;28;1337;-44
2022/07/11 00:13:21;;;;;;;5.68;3.50;;;;;;;15.54;100.00;101505.31;681871;28;1270;-44
2022/07/11 00:13:41;;;;;;;6.00;3.47;;;;;;;15.54;100.00;101513.22;682819;28;1231;-45
2022/07/11 00:14:02;;;;;;;5.83;3.00;;;;;;;15.53;100.00;101506.19;682291;28;2025;-44
2022/07/11 00:14:23;;;;;;;6.22;3.22;;;;;;;15.51;100.00;101503.56;682971;28;1193;-45
2022/07/11 00:14:43;;;;;;;6.68;3.50;;;;;;;15.50;100.00;101505.31;688555;28;1143;-44
2022/07/11 00:15:04;;;;;;;6.83;3.50;;;;;;;15.49;100.00;101500.97;683992;28;1730;-44
2022/07/11 00:15:26;;;;;;;5.53;3.30;;;;;;;15.50;100.00;101502.69;684797;28;4389;-44
2022/07/11 00:15:46;;;;;;;4.60;3.25;;;;;;;15.50;100.00;101499.19;683097;28;2171;-44
2022/07/11 00:16:07;;;;;;;4.60;2.70;;;;;;;15.51;100.00;101503.56;681765;28;1204;-44
2022/07/11 00:16:27;;;;;;;4.78;2.97;;;;;;;15.52;100.00;101500.06;682624;28;1204;-44
2022/07/11 00:16:48;;;;;;;5.17;3.20;;;;;;;15.54;100.00;101505.31;683373;28;1270;-44
2022/07/11 00:17:09;;;;;;;5.00;3.00;;;;;;;15.52;100.00;101505.31;684824;28;1370;-44
2022/07/11 00:17:29;;;;;;;5.30;3.40;;;;;;;15.52;100.00;101502.69;684212;28;1307;-44
2022/07/11 00:17:50;;;;;;;5.25;3.13;;;;;;;15.51;100.00;101500.94;687420;28;1784;-46
2022/07/11 00:18:10;;;;;;;6.13;3.03;;;;;;;15.50;100.00;101502.69;684312;28;4371;-43
2022/07/11 00:18:30;;;;;;;5.63;3.07;;;;;;;15.50;100.00;101501.81;683958;28;1358;-44
2022/07/11 00:18:51;;;;;;;5.03;2.90;;;;;;;15.50;100.00;101504.47;686460;28;1437;-45
2022/07/11 00:19:11;;;;;;;4.77;3.00;;;;;;;15.49;100.00;101495.69;685035;28;1365;-43
2022/07/11 00:19:31;;;;;;;4.78;3.10;;;;;;;15.49;100.00;101495.69;684669;28;1399;-43
2022/07/11 00:19:52;;;;;;;4.83;3.00;;;;;;;15.50;100.00;101493.91;684895;28;1334;-45
2022/07/11 00:20:12;;;;;;;5.93;3.10;;;;;;;15.49;100.00;101500.06;687663;28;1907;-45
2022/07/11 00:20:32;;;;;;;5.40;3.25;;;;;;;15.49;100.00;101497.44;687473;28;1499;-44
2022/07/11 00:20:53;;;;;;;5.20;3.47;;;;;;;15.49;100.00;101498.31;687721;28;1326;-44
2022/07/11 00:21:13;;;;;;;5.20;3.30;;;;;;;15.49;100.00;101498.31;686995;28;4408;-45
2022/07/11 00:21:35;;;;;;;7.22;3.40;;;;;;;15.48;100.00;101493.09;687621;28;1428;-44
2022/07/11 00:21:56;;;;;;;6.88;3.30;;;;;;;15.48;100.00;101498.34;686990;28;1462;-44
2022/07/11 00:22:18;;;;;;;5.55;3.10;;;;;;;15.48;100.00;101493.94;688039;28;1290;-45
2022/07/11 00:22:38;;;;;;;5.90;3.20;;;;;;;15.49;100.00;101502.69;681665;28;1957;-45
2022/07/11 00:22:59;;;;;;;6.25;3.40;;;;;;;15.49;100.00;101500.06;682726;28;1339;-46
2022/07/11 00:23:19;;;;;;;4.17;3.00;;;;;;;15.49;100.00;101500.97;679950;28;1296;-44
2022/07/11 00:23:39;;;;;;;4.90;2.92;;;;;;;15.50;100.00;101496.56;679316;28;1180;-44
2022/07/11 00:24:00;;;;;;;5.40;3.07;;;;;;;15.52;100.00;101496.53;679117;28;1349;-44
2022/07/11 00:24:21;;;;;;;5.30;3.10;;;;;;;15.50;100.00;101500.03;676291;28;4626;-44
2022/07/11 00:24:41;;;;;;;5.80;3.10;;;;;;;15.50;100.00;101493.91;682599;28;1208;-44
2022/07/11 00:25:02;;;;;;;5.93;3.13;;;;;;;15.49;100.00;101500.06;681951;28;2007;-44
2022/07/11 00:25:22;;;;;;;5.97;3.20;;;;;;;15.48;100.00;101490.44;684709;28;1160;-44
2022/07/11 00:25:43;;;;;;;7.03;3.17;;;;;;;15.48;100.00;101495.72;684186;28;1192;-47
2022/07/11 00:26:04;;;;;;;6.28;3.15;;;;;;;15.47;100.00;101492.19;682736;28;1141;-44
2022/07/11 00:26:25;;;;;;;5.50;3.20;;;;;;;15.49;100.00;101497.44;685641;28;1037;-44
2022/07/11 00:26:49;;;;;;;5.00;3.20;;;;;;;15.48;100.00;101496.56;682649;28;1448;-44
2022/07/11 00:27:10;;;;;;;5.00;3.20;;;;;;;15.48;100.00;101493.09;678738;28;1321;-44
2022/07/11 00:27:30;;;;;;;4.53;3.20;;;;;;;15.47;100.00;101497.47;675775;29;6142;-45
2022/07/11 00:27:50;;;;;;;4.37;3.20;;;;;;;15.47;100.00;101494.81;677858;29;1675;-44
2022/07/11 00:28:11;;;;;;;4.60;3.20;;;;;;;15.48;100.00;101493.09;679565;28;1220;-44
2022/07/11 00:28:31;;;;;;;4.67;3.00;;;;;;;15.48;100.00;101495.72;680208;28;1207;-45
2022/07/11 00:28:51;;;;;;;5.13;3.03;;;;;;;15.48;100.00;101495.72;682481;28;1191;-46
2022/07/11 00:29:12;;;;;;;4.50;3.07;;;;;;;15.48;100.00;101495.72;684605;28;1172;-44
2022/07/11 00:29:33;;;;;;;5.50;3.30;;;;;;;15.46;100.00;101493.06;683929;28;1165;-44
2022/07/11 00:29:53;;;;;;;5.13;3.30;;;;;;;15.45;100.00;101493.97;684897;28;1262;-46
2022/07/11 00:30:16;;;;;;;5.47;3.35;;;;;;;15.45;100.00;101495.72;681242;28;4559;-46
2022/07/11 00:30:36;;;;;;;6.22;2.85;;;;;;;15.46;100.00;101495.69;682171;28;1745;-44
2022/07/11 00:30:57;;;;;;;4.90;2.85;;;;;;;15.46;100.00;101495.69;682129;28;1414;-45
2022/07/11 00:31:17;;;;;;;5.50;3.00;;;;;;;15.46;100.00;101494.84;681829;28;1553;-44
2022/07/11 00:31:38;;;;;;;5.03;3.08;;;;;;;15.46;100.00;101490.44;685396;28;1588;-44
2022/07/11 00:31:59;;;;;;;5.17;3.30;;;;;;;15.45;100.00;101491.34;685121;28;1334;-44
2022/07/11 00:32:19;;;;;;;5.20;3.20;;;;;;;15.44;100.00;101492.22;687195;28;1266;-44
2022/07/11 00:32:39;;;;;;;5.80;3.20;;;;;;;15.43;100.00;101494.88;688013;28;1207;-44
2022/07/11 00:33:00;;;;;;;5.73;3.10;;;;;;;15.42;100.00;101490.50;687433;28;1588;-44
2022/07/11 00:33:20;;;;;;;5.25;3.20;;;;;;;15.43;100.00;101489.63;686751;28;4452;-46
2022/07/11 00:33:42;;;;;;;5.43;3.10;;;;;;;15.43;100.00;101489.63;686975;28;1238;-44
2022/07/11 00:34:03;;;;;;;5.32;3.15;;;;;;;15.43;100.00;101489.63;687221;28;1344;-46
2022/07/11 00:34:23;;;;;;;5.17;3.30;;;;;;;15.41;100.00;101496.66;687936;28;1207;-46
2022/07/11 00:34:44;;;;;;;4.88;3.28;;;;;;;15.38;100.00;101486.16;687823;28;1408;-44
2022/07/11 00:35:05;;;;;;;5.00;3.00;;;;;;;15.36;100.00;101488.81;687743;28;1311;-44
2022/07/11 00:35:25;;;;;;;5.80;3.40;;;;;;;15.35;100.00;101489.69;688002;28;1346;-44
2022/07/11 00:35:45;;;;;;;6.20;3.47;;;;;;;15.34;100.00;101493.25;686892;28;1298;-44
2022/07/11 00:36:06;;;;;;;6.70;3.60;;;;;;;15.32;100.00;101493.22;684270;28;1363;-44
2022/07/11 00:36:26;;;;;;;5.57;3.35;;;;;;;15.33;100.00;101492.34;684150;28;4498;-43
2022/07/11 00:36:49;;;;;;;5.57;3.23;;;;;;;15.36;100.00;101488.81;685120;28;1330;-45
2022/07/11 00:37:09;;;;;;;4.80;2.97;;;;;;;15.37;100.00;101490.56;684098;28;1470;-44
2022/07/11 00:37:30;;;;;;;5.13;2.90;;;;;;;15.39;100.00;101490.53;684658;28;1377;-44
2022/07/11 00:37:50;;;;;;;5.23;3.00;;;;;;;15.38;100.00;101494.06;682849;28;1808;-45
2022/07/11 00:38:10;;;;;;;5.33;3.10;;;;;;;15.39;100.00;101488.75;684088;28;4650;-44
2022/07/11 00:38:31;;;;;;;5.63;3.20;;;;;;;15.41;100.00;101491.38;684318;28;1533;-45
2022/07/11 00:38:51;;;;;;;5.73;3.20;;;;;;;15.42;100.00;101487.88;684896;28;1445;-44
2022/07/11 00:39:12;;;;;;;4.80;3.17;;;;;;;15.41;100.00;101491.38;680824;28;4530;-44
2022/07/11 00:39:32;;;;;;;4.70;3.13;;;;;;;15.42;100.00;101490.50;682001;28;1538;-44
2022/07/11 00:39:53;;;;;;;5.10;3.33;;;;;;;15.41;100.00;101492.28;682544;28;1180;-43
2022/07/11 00:40:13;;;;;;;4.70;3.17;;;;;;;15.42;100.00;101493.13;682476;28;1910;-45
2022/07/11 00:40:33;;;;;;;5.17;3.07;;;;;;;15.42;100.00;101493.13;678657;28;1858;-44
2022/07/11 00:40:54;;;;;;;5.63;3.10;;;;;;;15.43;100.00;101492.25;676981;29;1423;-43
2022/07/11 00:41:14;;;;;;;5.33;3.20;;;;;;;15.43;100.00;101490.47;679823;28;1530;-44
2022/07/11 00:41:35;;;;;;;4.88;3.22;;;;;;;15.44;100.00;101491.38;682586;28;1320;-44
2022/07/11 00:41:55;;;;;;;6.13;3.38;;;;;;;15.44;100.00;101492.22;679511;28;1897;-44
2022/07/11 00:42:17;;;;;;;6.90;3.50;;;;;;;15.44;100.00;101494.00;678301;28;4322;-44
2022/07/11 00:42:38;;;;;;;5.40;3.10;;;;;;;15.45;100.00;101495.72;683949;28;1295;-45
2022/07/11 00:42:58;;;;;;;4.95;3.22;;;;;;;15.45;100.00;101491.34;682142;28;1839;-44
2022/07/11 00:43:30;;;;;;;4.85;3.10;;;;;;;15.45;100.00;101488.72;676218;29;1182;-45
2022/07/11 00:43:56;;;;;;;5.85;3.30;;;;;;;15.45;100.00;101495.72;678422;29;1248;-44
2022/07/11 00:44:16;;;;;;;5.82;3.40;;;;;;;15.44;100.00;101489.59;677618;28;1573;-45
2022/07/11 00:44:37;;;;;;;5.93;3.37;;;;;;;15.45;100.00;101490.47;679182;29;1582;-44
2022/07/11 00:44:57;;;;;;;5.43;3.38;;;;;;;15.44;100.00;101494.00;682117;28;1474;-45
2022/07/11 00:45:17;;;;;;;4.57;3.10;;;;;;;15.44;100.00;101494.00;686491;28;4616;-44
2022/07/11 00:45:38;;;;;;;5.23;3.00;;;;;;;15.44;100.00;101489.59;686863;28;3547;-43
2022/07/11 00:45:59;;;;;;;5.53;2.90;;;;;;;15.46;100.00;101490.44;687906;28;1286;-43
2022/07/11 00:46:20;;;;;;;5.88;3.05;;;;;;;15.47;100.00;101491.31;686633;28;1329;-43
2022/07/11 00:46:40;;;;;;;4.80;3.00;;;;;;;15.46;100.00;101484.31;688023;28;1295;-44
2022/07/11 00:47:01;;;;;;;6.10;3.00;;;;;;;15.46;100.00;101492.22;687687;28;1428;-43
2022/07/11 00:47:21;;;;;;;5.90;3.30;;;;;;;15.44;100.00;101492.22;687330;28;1333;-44
2022/07/11 00:47:41;;;;;;;5.37;3.10;;;;;;;15.44;100.00;101491.38;687759;28;1310;-43
2022/07/11 00:48:02;;;;;;;5.45;3.30;;;;;;;15.43;100.00;101495.75;688163;28;1465;-44
2022/07/11 00:48:22;;;;;;;5.07;3.27;;;;;;;15.44;100.00;101496.63;686449;28;4556;-45
2022/07/11 00:48:43;;;;;;;6.65;3.10;;;;;;;15.43;100.00;101489.63;683369;28;1135;-46
2022/07/11 00:49:03;;;;;;;5.90;3.20;;;;;;;15.43;100.00;101495.75;683741;28;1312;-44
2022/07/11 00:49:24;;;;;;;4.80;3.20;;;;;;;15.42;100.00;101493.13;678043;28;1256;-43
2022/07/11 00:49:44;;;;;;;5.18;3.10;;;;;;;15.41;100.00;101491.38;678760;28;1220;-43
2022/07/11 00:50:05;;;;;;;4.97;3.10;;;;;;;15.41;100.00;101488.75;678600;28;1201;-44
2022/07/11 00:50:25;;;;;;;5.13;3.10;;;;;;;15.41;100.00;101491.38;679662;28;1326;-45
2022/07/11 00:50:46;;;;;;;4.85;3.20;;;;;;;15.40;100.00;101487.03;681573;28;1083;-45
2022/07/11 00:51:07;;;;;;;4.33;3.00;;;;;;;15.40;100.00;101487.03;679677;28;959;-45
2022/07/11 00:51:27;;;;;;;5.00;3.00;;;;;;;15.40;100.00;101489.66;685515;28;4655;-43
2022/07/11 00:51:49;;;;;;;4.50;3.00;;;;;;;15.40;100.00;101489.66;684698;28;1304;-45
2022/07/11 00:52:10;;;;;;;4.93;3.20;;;;;;;15.40;100.00;101489.66;682407;28;1352;-44
2022/07/11 00:52:30;;;;;;;5.85;3.20;;;;;;;15.39;100.00;101487.91;679645;28;1615;-45
2022/07/11 00:52:52;;;;;;;5.55;3.20;;;;;;;15.37;100.00;101485.28;680664;28;1285;-45
2022/07/11 00:53:12;;;;;;;5.00;3.08;;;;;;;15.38;100.00;101486.16;681750;28;1213;-44
2022/07/11 00:53:34;;;;;;;4.35;3.10;;;;;;;15.37;100.00;101487.94;680775;28;1566;-45
2022/07/11 00:53:57;;;;;;;4.40;3.03;;;;;;;15.38;100.00;101494.94;682344;28;1355;-44
2022/07/11 00:54:20;;;;;;;4.22;2.90;;;;;;;15.38;100.00;101484.41;685341;28;4404;-43
2022/07/11 00:54:40;;;;;;;5.80;3.30;;;;;;;15.38;100.00;101481.78;687140;28;1484;-45
2022/07/11 00:55:02;;;;;;;5.57;3.30;;;;;;;15.40;100.00;101489.66;687276;28;1825;-43
2022/07/11 00:55:23;;;;;;;5.10;3.30;;;;;;;15.40;100.00;101487.88;686872;28;1393;-44
2022/07/11 00:55:43;;;;;;;4.55;3.10;;;;;;;15.39;100.00;101487.91;684966;28;1325;-43
2022/07/11 00:56:06;;;;;;;4.87;3.03;;;;;;;15.39;100.00;101487.91;684534;28;1391;-44
2022/07/11 00:56:29;;;;;;;4.85;3.00;;;;;;;15.37;100.00;101485.28;684232;28;1330;-44
2022/07/11 00:56:50;;;;;;;4.72;3.10;;;;;;;15.37;100.00;101490.56;684899;28;1201;-46
2022/07/11 00:57:10;;;;;;;5.25;3.40;;;;;;;15.37;100.00;101485.28;684498;28;4575;-44
2022/07/11 00:57:33;;;;;;;4.83;3.07;;;;;;;15.37;100.00;101487.03;685957;28;1489;-44
2022/07/11 00:57:53;;;;;;;4.60;3.10;;;;;;;15.36;100.00;101486.19;684548;28;1485;-43
2022/07/11 00:58:14;;;;;;;5.10;3.00;;;;;;;15.35;100.00;101494.09;684490;28;1505;-45
2022/07/11 00:58:35;;;;;;;4.85;3.22;;;;;;;15.33;100.00;101487.09;684534;28;1298;-44
2022/07/11 00:58:58;;;;;;;5.38;3.40;;;;;;;15.36;100.00;101487.94;681800;28;1622;-43
2022/07/11 00:59:19;;;;;;;5.38;3.22;;;;;;;15.37;100.00;101487.03;681945;28;987;-45
2022/07/11 00:59:39;;;;;;;4.95;2.88;;;;;;;15.36;100.00;101482.69;683351;28;1217;-44
2022/07/11 01:00:00;;;;;;;4.00;2.50;;;;;;;15.37;100.00;101484.41;684506;28;1085;-44
2022/07/11 01:00:20;;;;;;;5.13;2.93;;;;;;;15.38;100.00;101488.78;683225;28;4482;-44
2022/07/11 01:00:41;;;;;;;5.55;3.10;;;;;;;15.36;100.00;101490.59;685828;28;1472;-44
2022/07/11 01:01:02;;;;;;;5.50;3.30;;;;;;;15.33;100.00;101492.34;684642;28;1652;-43
2022/07/11 01:01:22;;;;;;;4.75;3.17;;;;;;;15.35;100.00;101492.31;685375;28;1165;-43
2022/07/11 01:01:44;;;;;;;5.10;3.10;;;;;;;15.35;100.00;101491.47;684226;28;1222;-44
2022/07/11 01:02:05;;;;;;;4.60;2.90;;;;;;;15.39;100.00;101487.91;684326;28;2324;-44
2022/07/11 01:02:25;;;;;;;4.97;2.95;;;;;;;15.40;100.00;101489.66;685288;28;1635;-46
2022/07/11 01:02:46;;;;;;;4.60;3.00;;;;;;;15.41;100.00;101491.38;684783;28;1024;-44
2022/07/11 01:03:07;;;;;;;5.10;2.80;;;;;;;15.41;100.00;101487.00;685977;28;1710;-44
2022/07/11 01:03:27;;;;;;;5.22;3.05;;;;;;;15.40;100.00;101490.53;684468;28;4498;-43
2022/07/11 01:03:48;;;;;;;5.68;3.30;;;;;;;15.40;100.00;101487.03;685700;28;1163;-45
2022/07/11 01:04:08;;;;;;;5.30;3.08;;;;;;;15.38;100.00;101487.06;682320;28;1452;-43
2022/07/11 01:04:28;;;;;;;4.50;3.20;;;;;;;15.37;100.00;101481.78;681464;28;1633;-43
2022/07/11 01:04:49;;;;;;;5.53;3.20;;;;;;;15.37;100.00;101487.03;683640;28;2030;-43
2022/07/11 01:05:10;;;;;;;5.25;3.30;;;;;;;15.36;100.00;101487.94;680164;28;1450;-43
2022/07/11 01:05:30;;;;;;;4.15;2.90;;;;;;;15.36;100.00;101487.94;683187;28;1172;-44
2022/07/11 01:05:50;;;;;;;4.67;2.87;;;;;;;15.37;100.00;101487.03;682303;28;1137;-44
2022/07/11 01:06:11;;;;;;;4.90;3.00;;;;;;;15.37;100.00;101489.66;685007;28;4380;-45
2022/07/11 01:06:32;;;;;;;5.15;3.15;;;;;;;15.38;100.00;101488.78;683337;28;1725;-44
2022/07/11 01:06:52;;;;;;;4.50;3.05;;;;;;;15.37;100.00;101482.66;683160;28;1089;-43
2022/07/11 01:07:13;;;;;;;5.33;3.40;;;;;;;15.37;100.00;101489.66;684833;28;1101;-44
2022/07/11 01:07:34;;;;;;;5.38;3.50;;;;;;;15.35;100.00;101492.31;685373;28;1322;-44
2022/07/11 01:07:54;;;;;;;4.95;3.08;;;;;;;15.33;100.00;101486.22;684541;28;1384;-44
2022/07/11 01:08:15;;;;;;;4.93;3.00;;;;;;;15.33;100.00;101487.09;684525;28;1636;-43
2022/07/11 01:08:37;;;;;;;4.70;3.08;;;;;;;15.32;100.00;101485.31;687374;28;1323;-43
2022/07/11 01:08:58;;;;;;;5.43;3.40;;;;;;;15.31;100.00;101488.88;685529;28;1442;-45
2022/07/11 01:09:18;;;;;;;4.93;3.30;;;;;;;15.30;100.00;101492.38;684751;28;4449;-44
2022/07/11 01:09:38;;;;;;;4.70;3.20;;;;;;;15.28;100.00;101485.38;685040;28;1399;-44
2022/07/11 01:09:59;;;;;;;4.28;3.20;;;;;;;15.27;100.00;101483.63;683742;28;1330;-43
2022/07/11 01:10:19;;;;;;;5.07;2.87;;;;;;;15.25;100.00;101481.03;684430;28;1217;-45
2022/07/11 01:10:40;;;;;;;6.72;3.10;;;;;;;15.25;100.00;101488.94;684926;28;1402;-43
2022/07/11 01:11:02;;;;;;;7.03;3.50;;;;;;;15.25;100.00;101491.56;687799;28;1385;-45
2022/07/11 01:11:22;;;;;;;4.88;3.30;;;;;;;15.25;100.00;101499.47;686844;28;1186;-43
2022/07/11 01:11:42;;;;;;;5.70;3.27;;;;;;;15.24;100.00;101483.69;686641;28;1133;-44
2022/07/11 01:12:03;;;;;;;6.00;3.33;;;;;;;15.23;100.00;101488.09;687622;28;1131;-44
2022/07/11 01:12:24;;;;;;;5.05;3.20;;;;;;;15.22;100.00;101494.22;683716;28;4577;-43
2022/07/11 01:12:45;;;;;;;4.60;3.10;;;;;;;15.21;100.00;101478.44;684347;28;1135;-44
2022/07/11 01:13:07;;;;;;;5.03;3.40;;;;;;;15.20;100.00;101485.47;683997;28;1298;-45
2022/07/11 01:13:27;;;;;;;5.35;3.30;;;;;;;15.20;100.00;101493.38;682228;28;1310;-47
2022/07/11 01:13:47;;;;;;;5.75;3.30;;;;;;;15.20;100.00;101490.72;680123;28;1147;-44
2022/07/11 01:14:08;;;;;;;4.90;3.10;;;;;;;15.20;100.00;101481.97;680014;28;1204;-44
2022/07/11 01:14:28;;;;;;;4.43;3.30;;;;;;;15.19;100.00;101491.63;681553;28;1418;-44
2022/07/11 01:14:52;;;;;;;4.47;3.10;;;;;;;15.21;100.00;101484.59;680940;28;1184;-44
2022/07/11 01:15:16;;;;;;;4.75;2.92;;;;;;;15.22;100.00;101483.69;679789;28;4631;-46
2022/07/11 01:15:37;;;;;;;5.07;3.05;;;;;;;15.23;100.00;101489.81;682676;28;1161;-46
2022/07/11 01:16:15;;;;;;;5.03;3.00;;;;;;;15.25;100.00;101486.28;684369;28;1274;-45
2022/07/11 01:16:35;;;;;;;5.13;3.35;;;;;;;15.23;100.00;101481.94;687079;28;1189;-44
2022/07/11 01:16:55;;;;;;;4.60;3.47;;;;;;;15.22;100.00;101483.69;683903;28;1358;-44
2022/07/11 01:17:16;;;;;;;4.73;3.20;;;;;;;15.21;100.00;101483.72;684641;28;1257;-44
2022/07/11 01:17:36;;;;;;;5.28;3.20;;;;;;;15.19;100.00;101488.13;684403;28;1311;-43
2022/07/11 01:17:56;;;;;;;5.13;3.20;;;;;;;15.19;100.00;101489.00;684820;28;1303;-43
2022/07/11 01:18:17;;;;;;;4.50;3.20;;;;;;;15.19;100.00;101481.09;683336;28;4445;-44
2022/07/11 01:18:37;;;;;;;4.40;3.20;;;;;;;15.20;100.00;101489.88;684491;28;1220;-43
2022/07/11 01:18:57;;;;;;;5.93;3.13;;;;;;;15.20;100.00;101487.22;686275;28;1240;-44
2022/07/11 01:19:18;;;;;;;6.63;3.15;;;;;;;15.20;100.00;101485.47;686349;28;1259;-44
2022/07/11 01:19:38;;;;;;;5.57;3.07;;;;;;;15.18;100.00;101479.34;687295;28;1353;-44
2022/07/11 01:20:00;;;;;;;6.07;3.40;;;;;;;15.16;100.00;101483.78;684772;28;1374;-43
2022/07/11 01:20:24;;;;;;;5.68;3.50;;;;;;;15.15;100.00;101474.13;683606;28;1932;-43
2022/07/11 01:20:44;;;;;;;6.53;3.08;;;;;;;15.18;100.00;101487.25;684856;28;1139;-44
2022/07/11 01:21:16;;;;;;;6.20;3.00;;;;;;;15.20;100.00;101474.94;684807;28;1080;-43
2022/07/11 01:21:38;;;;;;;5.13;2.90;;;;;;;15.18;100.00;101474.09;684258;28;4936;-43
2022/07/11 01:22:02;;;;;;;4.75;3.25;;;;;;;15.14;100.00;101475.88;687749;28;1242;-44
2022/07/11 01:22:24;;;;;;;4.90;3.22;;;;;;;15.13;100.00;101476.78;687118;28;1753;-45
2022/07/11 01:22:50;;;;;;;5.00;3.30;;;;;;;15.12;100.00;101479.44;687637;28;1458;-43
2022/07/11 01:23:10;;;;;;;4.78;3.47;;;;;;;15.09;100.00;101479.44;687325;28;1088;-43
2022/07/11 01:23:31;;;;;;;5.10;3.28;;;;;;;15.09;100.00;101474.19;686561;28;1176;-45
2022/07/11 01:23:54;;;;;;;5.00;3.60;;;;;;;15.08;100.00;101477.72;686137;28;1097;-44
2022/07/11 01:24:14;;;;;;;5.57;3.67;;;;;;;15.07;100.00;101476.81;686700;28;4926;-43
2022/07/11 01:24:35;;;;;;;4.80;3.20;;;;;;;15.08;100.00;101478.59;686949;28;1287;-44
2022/07/11 01:24:56;;;;;;;4.85;3.30;;;;;;;15.07;100.00;101479.47;687975;28;1773;-43
2022/07/11 01:25:30;;;;;;;5.40;3.50;;;;;;;15.09;100.00;101479.44;687898;28;1187;-45
2022/07/11 01:25:51;;;;;;;6.20;3.42;;;;;;;15.06;100.00;101475.06;686985;28;1200;-44
2022/07/11 01:26:12;;;;;;;6.13;3.53;;;;;;;15.06;100.00;101479.47;684904;28;1142;-43
2022/07/11 01:26:33;;;;;;;5.50;3.45;;;;;;;15.05;100.00;101483.00;684561;28;1223;-44
2022/07/11 01:26:54;;;;;;;4.63;3.10;;;;;;;15.04;100.00;101478.63;684952;28;1000;-43
2022/07/11 01:27:15;;;;;;;4.85;3.25;;;;;;;15.06;100.00;101475.06;683931;28;4689;-43
2022/07/11 01:27:36;;;;;;;5.13;3.20;;;;;;;15.07;100.00;101475.97;685111;28;1104;-43
2022/07/11 01:27:57;;;;;;;4.78;3.08;;;;;;;15.10;100.00;101473.28;684852;28;1116;-44
2022/07/11 01:28:18;;;;;;;3.92;2.88;;;;;;;15.12;100.00;101466.25;687534;28;1631;-44
2022/07/11 01:28:38;;;;;;;4.57;3.10;;;;;;;15.12;100.00;101471.53;687472;28;1317;-43
2022/07/11 01:29:09;;;;;;;5.80;3.23;;;;;;;15.11;100.00;101472.41;686918;28;1240;-43
2022/07/11 01:29:30;;;;;;;6.03;3.40;;;;;;;15.10;100.00;101476.78;687815;28;1252;-43
2022/07/11 01:29:50;;;;;;;5.27;3.27;;;;;;;15.06;100.00;101469.81;686878;28;1254;-43
2022/07/11 01:30:11;;;;;;;5.95;3.40;;;;;;;15.08;100.00;101473.31;687406;28;1235;-43
2022/07/11 01:30:32;;;;;;;6.63;3.47;;;;;;;15.07;100.00;101470.69;683905;28;4417;-44
2022/07/11 01:30:52;;;;;;;5.82;3.63;;;;;;;15.04;100.00;101478.63;684355;28;1331;-44
2022/07/11 01:31:13;;;;;;;5.20;3.60;;;;;;;14.99;100.00;101476.03;683025;28;1543;-44
2022/07/11 01:31:34;;;;;;;5.77;3.70;;;;;;;14.95;100.00;101483.09;683947;28;1196;-44
2022/07/11 01:31:54;;;;;;;5.73;3.50;;;;;;;14.93;100.00;101478.75;682362;28;1311;-45
2022/07/11 01:32:17;;;;;;;5.65;3.40;;;;;;;14.92;100.00;101467.31;681907;28;1914;-43
2022/07/11 01:32:37;;;;;;;5.82;3.58;;;;;;;14.90;100.00;101474.38;686619;28;1342;-43
2022/07/11 01:32:58;;;;;;;6.20;3.57;;;;;;;14.89;100.00;101470.00;685310;28;1316;-44
2022/07/11 01:33:19;;;;;;;5.70;3.40;;;;;;;14.89;100.00;101477.03;686758;28;4496;-44
2022/07/11 01:33:40;;;;;;;6.43;3.58;;;;;;;14.88;100.00;101481.41;685051;28;1333;-43
2022/07/11 01:34:00;;;;;;;5.10;3.28;;;;;;;14.90;100.00;101478.78;685232;28;1310;-44
2022/07/11 01:34:21;;;;;;;4.37;3.10;;;;;;;14.91;100.00;101473.50;684162;28;1397;-43
2022/07/11 01:34:41;;;;;;;5.30;3.30;;;;;;;14.92;100.00;101472.59;684734;28;1561;-44
2022/07/11 01:35:02;;;;;;;5.23;3.30;;;;;;;14.93;100.00;101474.34;685247;28;1893;-44
2022/07/11 01:35:23;;;;;;;5.23;3.27;;;;;;;14.95;100.00;101477.84;684340;28;1196;-44
2022/07/11 01:35:43;;;;;;;5.47;3.78;;;;;;;14.93;100.00;101476.97;687247;28;1276;-45
2022/07/11 01:36:04;;;;;;;4.83;3.40;;;;;;;14.94;100.00;101472.59;687882;28;1326;-44
2022/07/11 01:36:24;;;;;;;5.53;3.15;;;;;;;14.93;100.00;101469.06;684668;28;4298;-45
2022/07/11 01:36:45;;;;;;;5.00;3.17;;;;;;;14.94;100.00;101478.72;685072;28;959;-47
2022/07/11 01:37:05;;;;;;;5.45;3.30;;;;;;;14.95;100.00;101477.84;682711;28;1085;-46
2022/07/11 01:37:26;;;;;;;5.77;3.33;;;;;;;14.95;100.00;101476.94;681880;28;1299;-46
2022/07/11 01:37:46;;;;;;;4.97;3.40;;;;;;;14.95;100.00;101482.22;681896;28;1354;-44
2022/07/11 01:38:07;;;;;;;4.30;3.13;;;;;;;14.96;100.00;101470.81;681852;28;5036;-44
2022/07/11 01:38:27;;;;;;;4.10;3.20;;;;;;;14.96;100.00;101470.81;684742;28;1667;-43
2022/07/11 01:38:48;;;;;;;4.93;3.30;;;;;;;14.96;100.00;101479.56;684897;28;1240;-45
2022/07/11 01:39:08;;;;;;;5.40;3.10;;;;;;;14.95;100.00;101480.47;681311;28;1561;-45